createdAt,value
2023-06-08T00:00:09.492Z,31.00
2023-06-08T00:02:37.826Z,22.13
2023-06-08T00:05:06.264Z,25.92
2023-06-08T00:07:36.109Z,21.27
2023-06-08T00:10:03.785Z,20.30
2023-06-08T00:12:34.297Z,27.00
2023-06-08T00:15:01.454Z,23.23
2023-06-08T00:17:29.661Z,27.90
2023-06-08T00:19:58.233Z,31.15
2023-06-08T00:22:25.636Z,24.38
2023-06-08T00:24:52.728Z,25.67
2023-06-08T00:27:20.126Z,21.42
2023-06-08T00:29:47.292Z,21.63
2023-06-08T00:32:14.417Z,32.67
2023-06-08T00:34:41.495Z,29.95
2023-06-08T00:37:08.563Z,24.67
2023-06-08T00:39:35.651Z,27.42
2023-06-08T00:42:04.464Z,21.60
2023-06-08T00:44:31.500Z,17.30
2023-06-08T00:46:58.638Z,24.25
2023-06-08T00:49:25.798Z,22.10
2023-06-08T00:51:53.325Z,22.08
2023-06-08T00:54:21.135Z,22.77
2023-06-08T00:56:49.437Z,18.25
2023-06-08T00:59:17.343Z,24.55
2023-06-08T01:01:46.330Z,20.38
2023-06-08T01:04:16.096Z,21.92
2023-06-08T01:06:50.078Z,21.20
2023-06-08T01:09:35.074Z,39.03
2023-06-08T01:12:29.391Z,19.73
2023-06-08T01:15:10.574Z,23.65
2023-06-08T01:17:48.381Z,20.85
2023-06-08T01:21:09.516Z,21.92
2023-06-08T01:24:21.281Z,19.90
2023-06-08T01:26:50.667Z,16.83
2023-06-08T01:29:26.596Z,16.42
2023-06-08T01:31:53.937Z,15.45
2023-06-08T01:34:21.780Z,19.35
2023-06-08T01:37:24.813Z,18.35
2023-06-08T01:40:11.142Z,14.43
2023-06-08T01:42:41.107Z,16.33
2023-06-08T01:45:18.430Z,14.02
2023-06-08T01:48:03.082Z,11.02
2023-06-08T01:50:32.921Z,15.38
2023-06-08T01:53:00.022Z,13.88
2023-06-08T01:55:29.216Z,13.30
2023-06-08T01:57:56.665Z,13.10
2023-06-08T02:00:24.805Z,18.45
2023-06-08T02:02:51.975Z,16.77
2023-06-08T02:05:19.275Z,12.02
2023-06-08T02:07:46.524Z,20.70
2023-06-08T02:10:14.437Z,15.93
2023-06-08T02:12:42.457Z,13.23
2023-06-08T02:15:10.072Z,30.30
2023-06-08T02:17:38.026Z,19.17
2023-06-08T02:20:08.540Z,16.20
2023-06-08T02:22:38.145Z,21.15
2023-06-08T02:25:08.621Z,21.63
2023-06-08T02:27:37.484Z,14.23
2023-06-08T02:30:09.404Z,19.08
2023-06-08T02:32:37.111Z,21.67
2023-06-08T02:35:06.093Z,28.83
2023-06-08T02:37:35.279Z,12.93
2023-06-08T02:40:02.687Z,15.82
2023-06-08T02:42:30.145Z,11.98
2023-06-08T02:44:57.281Z,17.55
2023-06-08T02:47:24.383Z,16.40
2023-06-08T02:49:51.406Z,13.65
2023-06-08T02:52:18.742Z,16.35
2023-06-08T02:54:45.879Z,14.43
2023-06-08T02:57:13.131Z,14.02
2023-06-08T02:59:40.222Z,17.83
2023-06-08T03:02:07.533Z,12.85
2023-06-08T03:04:38.289Z,12.88
2023-06-08T03:07:05.492Z,14.98
2023-06-08T03:09:32.501Z,11.75
2023-06-08T03:12:01.115Z,16.15
2023-06-08T03:14:31.004Z,16.63
2023-06-08T03:16:58.856Z,20.25
2023-06-08T03:19:26.794Z,18.70
2023-06-08T03:21:54.396Z,14.90
2023-06-08T03:24:21.900Z,17.70
2023-06-08T03:26:49.116Z,15.90
2023-06-08T03:29:16.609Z,20.67
2023-06-08T03:31:43.764Z,15.93
2023-06-08T03:34:10.959Z,14.38
2023-06-08T03:36:39.631Z,22.25
2023-06-08T03:39:06.775Z,16.27
2023-06-08T03:41:33.839Z,20.08
2023-06-08T03:44:00.938Z,20.17
2023-06-08T03:46:28.350Z,21.40
2023-06-08T03:48:55.488Z,25.58
2023-06-08T03:51:23.006Z,32.00
2023-06-08T03:53:53.648Z,29.27
2023-06-08T03:56:21.478Z,33.22
2023-06-08T03:58:51.132Z,28.98
2023-06-08T04:01:19.186Z,30.52
2023-06-08T04:03:46.593Z,25.88
2023-06-08T04:06:13.708Z,26.83
2023-06-08T04:08:42.158Z,28.25
2023-06-08T04:11:09.782Z,28.67
2023-06-08T04:13:39.063Z,29.80
2023-06-08T04:16:10.586Z,25.73
2023-06-08T04:18:41.138Z,28.35
2023-06-08T04:21:08.892Z,30.92
2023-06-08T04:23:37.637Z,31.27
2023-06-08T04:26:09.700Z,30.90
2023-06-08T04:28:37.051Z,29.58
2023-06-08T04:31:06.070Z,26.67
2023-06-08T04:33:33.194Z,28.55
2023-06-08T04:36:01.008Z,30.75
2023-06-08T04:38:28.450Z,35.10
2023-06-08T04:40:56.922Z,32.75
2023-06-08T04:43:26.475Z,30.58
2023-06-08T04:45:58.729Z,34.45
2023-06-08T04:48:29.533Z,31.75
2023-06-08T04:51:02.320Z,30.33
2023-06-08T04:53:31.666Z,31.02
2023-06-08T04:55:58.965Z,33.10
2023-06-08T04:58:30.431Z,33.42
2023-06-08T05:00:58.290Z,33.83
2023-06-08T05:03:29.447Z,31.63
2023-06-08T05:05:57.177Z,46.50
2023-06-08T05:08:24.326Z,31.35
2023-06-08T05:10:51.592Z,29.13
2023-06-08T05:13:18.686Z,31.40
2023-06-08T05:15:45.820Z,39.65
2023-06-08T05:18:12.961Z,26.75
2023-06-08T05:20:40.099Z,28.50
2023-06-08T05:23:07.514Z,36.75
2023-06-08T05:25:38.134Z,29.35
2023-06-08T05:28:05.748Z,30.73
2023-06-08T05:30:32.808Z,26.73
2023-06-08T05:33:01.667Z,28.40
2023-06-08T05:35:29.559Z,32.92
2023-06-08T05:37:56.958Z,28.88
2023-06-08T05:40:25.291Z,32.05
2023-06-08T05:42:52.413Z,33.53
2023-06-08T05:45:19.544Z,29.65
2023-06-08T05:47:46.841Z,28.30
2023-06-08T05:50:14.008Z,25.75
2023-06-08T05:52:41.171Z,29.00
2023-06-08T05:55:10.422Z,28.80
2023-06-08T05:57:39.808Z,25.90
2023-06-08T06:00:12.045Z,39.50
2023-06-08T06:02:42.960Z,24.20
2023-06-08T06:05:10.987Z,27.55
2023-06-08T06:07:39.006Z,29.85
2023-06-08T06:10:07.751Z,28.50
2023-06-08T06:12:35.130Z,21.88
2023-06-08T06:15:02.313Z,32.22
2023-06-08T06:17:29.556Z,25.83
2023-06-08T06:19:56.738Z,20.20
2023-06-08T06:22:23.940Z,23.20
2023-06-08T06:24:51.168Z,23.95
2023-06-08T06:27:19.730Z,28.52
2023-06-08T06:29:46.801Z,25.73
2023-06-08T06:32:14.092Z,23.58
2023-06-08T06:34:43.485Z,18.80
2023-06-08T06:37:10.837Z,24.83
2023-06-08T06:39:37.988Z,25.88
2023-06-08T06:42:06.352Z,24.95
2023-06-08T06:44:33.478Z,25.08
2023-06-08T06:47:00.649Z,36.83
2023-06-08T06:49:27.741Z,43.67
2023-06-08T06:51:55.932Z,31.08
2023-06-08T06:54:22.973Z,30.67
2023-06-08T06:56:50.064Z,32.15
2023-06-08T06:59:17.203Z,31.83
2023-06-08T07:01:44.438Z,30.33
2023-06-08T07:04:11.887Z,30.33
2023-06-08T07:06:38.988Z,26.48
2023-06-08T07:09:06.274Z,29.25
2023-06-08T07:11:33.444Z,25.88
2023-06-08T07:14:00.492Z,26.35
2023-06-08T07:16:28.174Z,28.52
2023-06-08T07:18:55.418Z,23.95
2023-06-08T07:21:24.663Z,28.02
2023-06-08T07:24:33.051Z,28.38
2023-06-08T07:26:42.127Z,28.48
2023-06-08T07:29:09.413Z,30.48
2023-06-08T07:31:39.407Z,29.95
2023-06-08T07:34:08.137Z,36.00
2023-06-08T07:36:36.819Z,40.80
2023-06-08T07:39:04.961Z,35.47
2023-06-08T07:41:35.808Z,40.58
2023-06-08T07:44:03.614Z,38.70
2023-06-08T07:46:32.462Z,46.13
2023-06-08T07:48:59.765Z,39.67
2023-06-08T07:51:26.904Z,45.10
2023-06-08T07:53:53.975Z,40.83
2023-06-08T07:56:22.831Z,43.83
2023-06-08T07:58:50.007Z,37.25
2023-06-08T08:01:17.846Z,41.03
2023-06-08T08:03:46.840Z,44.60
2023-06-08T08:06:14.592Z,44.00
2023-06-08T08:08:41.710Z,49.17
2023-06-08T08:11:10.469Z,38.25
2023-06-08T08:13:38.651Z,44.47
2023-06-08T08:16:06.837Z,38.83
2023-06-08T08:18:33.917Z,39.30
2023-06-08T08:21:01.034Z,38.60
2023-06-08T08:23:28.238Z,39.50
2023-06-08T08:25:55.305Z,49.10
2023-06-08T08:28:22.334Z,45.92
2023-06-08T08:30:51.105Z,38.28
2023-06-08T08:33:18.377Z,42.55
2023-06-08T08:35:45.728Z,38.13
2023-06-08T08:38:14.075Z,35.90
2023-06-08T08:40:44.302Z,41.40
2023-06-08T08:43:19.285Z,41.47
2023-06-08T08:45:47.096Z,38.05
2023-06-08T08:48:20.655Z,36.92
2023-06-08T08:50:54.806Z,37.65
2023-06-08T08:53:34.378Z,37.33
2023-06-08T08:56:05.028Z,36.03
2023-06-08T08:58:32.381Z,31.60
2023-06-08T09:00:59.686Z,32.60
2023-06-08T09:03:26.829Z,34.10
2023-06-08T09:05:53.936Z,31.05
2023-06-08T09:08:23.370Z,32.15
2023-06-08T09:11:05.508Z,36.50
2023-06-08T09:13:34.170Z,30.33
2023-06-08T09:16:23.378Z,32.60
2023-06-08T09:19:06.563Z,31.80
2023-06-08T09:21:35.640Z,26.05
2023-06-08T09:24:19.313Z,26.00
2023-06-08T09:26:53.201Z,25.48
2023-06-08T09:29:43.109Z,19.27
2023-06-08T09:32:14.802Z,20.17
2023-06-08T09:35:07.221Z,14.77
2023-06-08T09:37:38.216Z,21.13
2023-06-08T09:40:07.385Z,21.83
2023-06-08T09:42:52.228Z,20.52
2023-06-08T09:45:19.505Z,23.00
2023-06-08T09:47:47.008Z,20.58
2023-06-08T09:50:14.980Z,18.15
2023-06-08T09:52:48.228Z,16.63
2023-06-08T09:55:17.658Z,16.23
2023-06-08T09:57:46.471Z,22.98
2023-06-08T10:00:21.845Z,20.63
2023-06-08T10:02:54.501Z,14.65
2023-06-08T10:05:24.945Z,20.83
2023-06-08T10:07:56.134Z,22.55
2023-06-08T10:10:30.479Z,19.08
2023-06-08T10:12:58.819Z,15.75
2023-06-08T10:15:28.212Z,17.27
2023-06-08T10:17:56.514Z,15.10
2023-06-08T10:20:24.463Z,14.95
2023-06-08T10:22:52.725Z,20.13
2023-06-08T10:25:20.523Z,14.43
2023-06-08T10:27:52.166Z,14.55
2023-06-08T10:30:41.389Z,15.13
2023-06-08T10:33:14.017Z,13.30
2023-06-08T10:35:44.718Z,14.95
2023-06-08T10:38:18.241Z,14.65
2023-06-08T10:40:51.924Z,12.63
2023-06-08T10:43:49.968Z,11.98
2023-06-08T10:46:14.721Z,12.18
2023-06-08T10:48:42.815Z,12.43
2023-06-08T10:51:22.829Z,16.25
2023-06-08T10:53:59.542Z,13.30
2023-06-08T10:56:28.430Z,18.17
2023-06-08T10:58:56.446Z,14.90
2023-06-08T11:01:32.812Z,12.70
2023-06-08T11:04:06.124Z,10.50
2023-06-08T11:06:40.186Z,11.00
2023-06-08T11:09:07.439Z,11.45
2023-06-08T11:11:34.617Z,12.00
2023-06-08T11:14:02.467Z,15.13
2023-06-08T11:16:29.796Z,12.63
2023-06-08T11:18:57.023Z,10.98
2023-06-08T11:21:25.160Z,11.90
2023-06-08T11:23:52.317Z,11.52
2023-06-08T11:26:22.918Z,12.88
2023-06-08T11:28:51.090Z,13.98
2023-06-08T11:31:19.110Z,14.10
2023-06-08T11:33:50.474Z,13.32
2023-06-08T11:36:18.625Z,12.30
2023-06-08T11:38:45.825Z,12.13
2023-06-08T11:41:14.480Z,13.35
2023-06-08T11:43:41.669Z,11.52
2023-06-08T11:46:11.597Z,11.98
2023-06-08T11:48:40.038Z,12.55
2023-06-08T11:51:08.761Z,13.30
2023-06-08T11:53:36.644Z,10.63
2023-06-08T11:56:05.332Z,10.40
2023-06-08T11:58:35.941Z,9.15
2023-06-08T12:01:12.618Z,10.35
2023-06-08T12:03:51.368Z,10.45
2023-06-08T12:06:20.024Z,10.05
2023-06-08T12:08:50.459Z,11.90
2023-06-08T12:11:17.637Z,9.80
2023-06-08T12:13:45.133Z,8.77
2023-06-08T12:16:13.839Z,10.20
2023-06-08T12:18:43.643Z,11.00
2023-06-08T12:21:19.776Z,10.98
2023-06-08T12:23:47.154Z,21.10
2023-06-08T12:26:15.358Z,10.88
2023-06-08T12:28:43.827Z,13.82
2023-06-08T12:31:11.271Z,9.90
2023-06-08T12:33:38.533Z,11.10
2023-06-08T12:36:05.995Z,12.52
2023-06-08T12:38:33.078Z,16.08
2023-06-08T12:41:00.162Z,19.60
2023-06-08T12:43:27.325Z,11.18
2023-06-08T12:45:54.858Z,13.23
2023-06-08T12:48:23.435Z,23.73
2023-06-08T12:50:50.725Z,12.25
2023-06-08T12:53:17.805Z,12.55
2023-06-08T12:55:44.943Z,11.10
2023-06-08T12:58:12.455Z,13.02
2023-06-08T13:00:39.857Z,14.93
2023-06-08T13:03:10.608Z,15.15
2023-06-08T13:05:38.026Z,11.85
2023-06-08T13:08:07.856Z,9.70
2023-06-08T13:10:39.804Z,9.60
2023-06-08T13:13:08.168Z,9.98
2023-06-08T13:15:36.560Z,11.38
2023-06-08T13:18:07.488Z,11.98
2023-06-08T13:20:35.849Z,10.65
2023-06-08T13:23:02.910Z,10.35
2023-06-08T13:25:30.067Z,18.33
2023-06-08T13:27:57.608Z,9.50
2023-06-08T13:30:25.637Z,10.40
2023-06-08T13:32:54.676Z,10.77
2023-06-08T13:35:21.932Z,9.25
2023-06-08T13:37:49.200Z,10.70
2023-06-08T13:40:16.307Z,14.25
2023-06-08T13:42:43.746Z,26.05
2023-06-08T13:45:13.749Z,18.02
2023-06-08T13:47:42.346Z,16.23
2023-06-08T13:50:11.395Z,14.25
2023-06-08T13:52:39.468Z,13.85
2023-06-08T13:55:07.221Z,10.70
2023-06-08T13:57:34.633Z,12.68
2023-06-08T14:00:04.473Z,10.10
2023-06-08T14:02:32.328Z,9.70
2023-06-08T14:05:00.757Z,14.48
2023-06-08T14:07:28.274Z,14.38
2023-06-08T14:09:55.551Z,10.75
2023-06-08T14:12:22.685Z,16.23
2023-06-08T14:14:51.286Z,14.85
2023-06-08T14:17:18.762Z,15.77
2023-06-08T14:19:47.868Z,18.30
2023-06-08T14:22:16.318Z,16.30
2023-06-08T14:24:43.677Z,11.77
2023-06-08T14:27:11.668Z,15.73
2023-06-08T14:29:39.291Z,12.15
2023-06-08T14:32:07.050Z,16.77
2023-06-08T14:34:35.578Z,21.60
2023-06-08T14:37:03.109Z,17.83
2023-06-08T14:39:31.328Z,11.43
2023-06-08T14:41:58.561Z,9.20
2023-06-08T14:44:25.617Z,15.07
2023-06-08T14:46:52.705Z,11.88
2023-06-08T14:49:21.101Z,10.57
2023-06-08T14:51:48.257Z,13.35
2023-06-08T14:54:15.304Z,11.90
2023-06-08T14:56:42.724Z,12.23
2023-06-08T14:59:09.825Z,18.65
2023-06-08T15:01:38.035Z,11.85
2023-06-08T15:04:08.424Z,12.48
2023-06-08T15:06:36.628Z,11.98
2023-06-08T15:09:04.081Z,20.33
2023-06-08T15:11:31.199Z,22.83
2023-06-08T15:13:58.443Z,13.45
2023-06-08T15:16:25.704Z,14.80
2023-06-08T15:18:52.881Z,13.05
2023-06-08T15:21:19.994Z,17.15
2023-06-08T15:23:47.809Z,17.05
2023-06-08T15:26:15.050Z,14.05
2023-06-08T15:28:42.178Z,19.30
2023-06-08T15:31:09.415Z,15.73
2023-06-08T15:33:36.911Z,17.92
2023-06-08T15:36:04.644Z,14.10
2023-06-08T15:38:31.830Z,15.18
2023-06-08T15:41:01.200Z,18.25
2023-06-08T15:43:30.695Z,14.90
2023-06-08T15:45:57.767Z,15.07
2023-06-08T15:48:24.892Z,17.13
2023-06-08T15:50:52.113Z,21.23
2023-06-08T15:53:19.169Z,18.95
2023-06-08T15:55:46.304Z,19.67
2023-06-08T15:58:13.434Z,17.65
2023-06-08T16:00:41.030Z,21.92
2023-06-08T16:03:08.183Z,17.80
2023-06-08T16:05:35.306Z,16.77
2023-06-08T16:08:02.429Z,30.45
2023-06-08T16:10:29.496Z,24.73
2023-06-08T16:12:56.613Z,14.32
2023-06-08T16:15:24.925Z,18.00
2023-06-08T16:17:52.134Z,17.42
2023-06-08T16:20:19.272Z,18.50
2023-06-08T16:22:46.310Z,17.75
2023-06-08T16:25:13.422Z,12.93
2023-06-08T16:27:40.611Z,14.82
2023-06-08T16:30:08.828Z,19.85
2023-06-08T16:32:36.161Z,19.13
2023-06-08T16:35:03.809Z,14.27
2023-06-08T16:37:34.410Z,20.55
2023-06-08T16:40:02.505Z,12.70
2023-06-08T16:42:31.086Z,12.68
2023-06-08T16:44:58.247Z,11.23
2023-06-08T16:47:25.426Z,14.82
2023-06-08T16:49:52.517Z,12.57
2023-06-08T16:52:19.558Z,13.73
2023-06-08T16:54:46.608Z,14.45
2023-06-08T16:57:13.705Z,18.00
2023-06-08T16:59:41.424Z,23.00
2023-06-08T17:02:08.513Z,15.63
2023-06-08T17:04:36.078Z,13.20
2023-06-08T17:07:03.877Z,15.57
2023-06-08T17:09:31.507Z,16.13
2023-06-08T17:11:59.159Z,22.23
2023-06-08T17:14:26.987Z,17.10
2023-06-08T17:16:57.191Z,17.90
2023-06-08T17:19:26.638Z,13.80
2023-06-08T17:21:54.538Z,16.95
2023-06-08T17:24:22.402Z,14.13
2023-06-08T17:26:50.245Z,17.05
2023-06-08T17:29:18.080Z,14.38
2023-06-08T17:31:45.952Z,17.60
2023-06-08T17:34:16.918Z,17.08
2023-06-08T17:36:45.105Z,17.33
2023-06-08T17:39:17.873Z,16.95
2023-06-08T17:41:45.898Z,14.13
2023-06-08T17:44:14.080Z,13.57
2023-06-08T17:46:42.121Z,18.73
2023-06-08T17:49:10.244Z,12.25
2023-06-08T17:51:40.551Z,14.77
2023-06-08T17:54:08.711Z,17.27
2023-06-08T17:56:38.179Z,12.15
2023-06-08T17:59:06.762Z,15.07
2023-06-08T18:01:35.986Z,12.85
2023-06-08T18:04:04.241Z,12.18
2023-06-08T18:06:32.313Z,13.00
2023-06-08T18:09:00.440Z,17.75
2023-06-08T18:11:28.464Z,14.85
2023-06-08T18:13:56.610Z,18.77
2023-06-08T18:16:25.939Z,14.57
2023-06-08T18:18:54.340Z,14.32
2023-06-08T18:21:22.468Z,13.23
2023-06-08T18:23:55.711Z,13.60
2023-06-08T18:26:25.165Z,14.00
2023-06-08T18:28:55.072Z,12.52
2023-06-08T18:31:26.948Z,16.52
2023-06-08T18:33:55.420Z,18.25
2023-06-08T18:36:28.169Z,12.20
2023-06-08T18:38:56.914Z,15.75
2023-06-08T18:41:25.133Z,13.20
2023-06-08T18:43:53.854Z,11.65
2023-06-08T18:46:22.103Z,12.77
2023-06-08T18:48:50.289Z,17.55
2023-06-08T18:51:19.949Z,17.38
2023-06-08T18:53:51.037Z,16.23
2023-06-08T18:56:19.181Z,13.98
2023-06-08T18:58:47.442Z,14.90
2023-06-08T19:01:15.681Z,17.23
2023-06-08T19:03:44.089Z,16.58
2023-06-08T19:06:12.405Z,16.23
2023-06-08T19:08:40.414Z,15.05
2023-06-08T19:11:08.563Z,16.92
2023-06-08T19:13:41.299Z,18.98
2023-06-08T19:16:11.731Z,22.40
2023-06-08T19:18:40.067Z,12.95
2023-06-08T19:21:08.454Z,12.43
2023-06-08T19:23:36.701Z,17.35
2023-06-08T19:26:05.054Z,15.70
2023-06-08T19:28:34.794Z,14.80
2023-06-08T19:31:02.992Z,18.15
2023-06-08T19:33:31.817Z,23.35
2023-06-08T19:36:00.988Z,23.20
2023-06-08T19:38:29.130Z,18.17
2023-06-08T19:40:57.282Z,26.60
2023-06-08T19:43:25.423Z,18.58
2023-06-08T19:45:53.619Z,19.02
2023-06-08T19:48:21.840Z,19.17
2023-06-08T19:50:50.034Z,26.50
2023-06-08T19:53:18.181Z,24.50
2023-06-08T19:55:48.367Z,14.65
2023-06-08T19:58:19.112Z,31.38
2023-06-08T20:00:50.029Z,17.67
2023-06-08T20:03:18.067Z,23.67
2023-06-08T20:05:46.278Z,14.40
2023-06-08T20:08:14.597Z,23.00
2023-06-08T20:10:43.640Z,15.73
2023-06-08T20:13:11.928Z,22.88
2023-06-08T20:15:40.001Z,16.27
2023-06-08T20:18:08.873Z,17.25
2023-06-08T20:20:37.065Z,21.95
2023-06-08T20:23:06.309Z,15.07
2023-06-08T20:25:34.382Z,21.13
2023-06-08T20:28:02.480Z,17.63
2023-06-08T20:30:30.485Z,17.20
2023-06-08T20:32:58.718Z,20.52
2023-06-08T20:35:26.826Z,14.48
2023-06-08T20:37:54.746Z,20.45
2023-06-08T20:40:22.743Z,20.30
2023-06-08T20:42:52.753Z,16.60
2023-06-08T20:45:21.215Z,17.75
2023-06-08T20:47:49.415Z,18.92
2023-06-08T20:50:17.451Z,18.73
2023-06-08T20:52:45.427Z,22.30
2023-06-08T20:55:13.233Z,15.05
2023-06-08T20:57:40.806Z,14.57
2023-06-08T21:00:11.389Z,19.33
2023-06-08T21:02:48.819Z,22.00
2023-06-08T21:05:19.545Z,16.08
2023-06-08T21:07:48.041Z,22.40
2023-06-08T21:10:16.430Z,29.92
2023-06-08T21:12:43.514Z,25.77
2023-06-08T21:15:11.162Z,32.15
2023-06-08T21:17:38.931Z,16.55
2023-06-08T21:20:08.282Z,25.52
2023-06-08T21:22:35.980Z,24.08
2023-06-08T21:25:04.937Z,18.83
2023-06-08T21:27:32.172Z,19.83
2023-06-08T21:29:59.320Z,20.70
2023-06-08T21:32:26.590Z,20.38
2023-06-08T21:34:53.951Z,21.02
2023-06-08T21:37:21.007Z,17.48
2023-06-08T21:39:48.155Z,17.17
2023-06-08T21:42:15.226Z,23.20
2023-06-08T21:44:42.328Z,17.55
2023-06-08T21:47:09.562Z,20.27
2023-06-08T21:49:36.626Z,16.77
2023-06-08T21:52:04.169Z,16.30
2023-06-08T21:54:31.445Z,21.10
2023-06-08T21:56:58.870Z,22.05
2023-06-08T21:59:25.990Z,17.38
2023-06-08T22:01:53.356Z,14.52
2023-06-08T22:04:21.451Z,16.55
2023-06-08T22:06:50.488Z,16.05
2023-06-08T22:09:17.603Z,23.45
2023-06-08T22:11:46.358Z,23.50
2023-06-08T22:14:14.207Z,22.77
2023-06-08T22:16:43.158Z,22.02
2023-06-08T22:19:10.542Z,13.75
2023-06-08T22:21:37.920Z,24.63
2023-06-08T22:24:06.067Z,19.90
2023-06-08T22:26:33.293Z,16.40
2023-06-08T22:29:00.382Z,23.08
2023-06-08T22:31:27.764Z,16.25
2023-06-08T22:33:54.983Z,17.30
2023-06-08T22:36:24.504Z,17.85
2023-06-08T22:38:52.111Z,20.67
2023-06-08T22:41:19.257Z,17.73
2023-06-08T22:43:46.579Z,12.93
2023-06-08T22:46:13.795Z,20.60
2023-06-08T22:48:43.190Z,19.85
2023-06-08T22:51:11.280Z,12.73
2023-06-08T22:53:38.554Z,21.38
2023-06-08T22:56:07.161Z,22.20
2023-06-08T22:58:34.541Z,26.08
2023-06-08T23:01:04.037Z,15.50
2023-06-08T23:03:31.265Z,17.52
2023-06-08T23:06:00.053Z,22.40
2023-06-08T23:08:29.039Z,19.48
2023-06-08T23:10:56.947Z,16.02
2023-06-08T23:13:26.997Z,14.80
2023-06-08T23:15:55.447Z,18.00
2023-06-08T23:18:31.858Z,16.10
2023-06-08T23:21:01.507Z,17.83
2023-06-08T23:23:31.247Z,16.80
2023-06-08T23:25:59.091Z,15.40
2023-06-08T23:28:27.168Z,16.95
2023-06-08T23:30:55.522Z,22.58
2023-06-08T23:33:23.068Z,16.10
2023-06-08T23:35:50.198Z,17.42
2023-06-08T23:38:17.426Z,18.15
2023-06-08T23:40:44.500Z,31.17
2023-06-08T23:43:11.698Z,29.38
2023-06-08T23:45:38.877Z,15.85
2023-06-08T23:48:07.002Z,16.45
2023-06-08T23:50:34.342Z,15.82
2023-06-08T23:53:01.458Z,19.50
2023-06-08T23:55:28.750Z,13.32
2023-06-08T23:57:55.864Z,15.70
